Berrien Center, MI (49102)

11:19 AM EDT on July 25, 2016 (GMT -0400)
Berrien Center, MI - Rural | | Change Station
Active Advisory: Beach Hazard Statement

Elev 745 ft 41.95 °N, 86.29 °W | Updated 6 minutes ago

Clear
Clear
80.4 °F
Feels Like 84 °F
N
5.3
Wind Variable Wind from SSE

Today
High -- | Low -- °F
--% Chance of Precip.
Yesterday
High -- | Low -- °F
Precip. -- in
Pressure 29.97 in
Visibility 10.0 miles
Clouds Clear
Heat Index 84 °F
Dew Point 71 °F
Humidity 74%
Rainfall 0.02 in
Snow Depth Not available.
6:32 AM 9:10 PM
Waning Gibbous, 65% visible
METAR KBEH 251453Z AUTO 34006KT 10SM CLR 26/19 A2998 RMK AO2 SLP149 T02560189 53006
Pressure 29.97 in
Visibility 10.0 miles
Clouds Clear
Heat Index 84 °F
Dew Point 71 °F
Humidity 74%
Rainfall 0.02 in
Snow Depth Not available.
6:32 AM 9:10 PM
Waning Gibbous, 65% visible
METAR KBEH 251453Z AUTO 34006KT 10SM CLR 26/19 A2998 RMK AO2 SLP149 T02560189 53006

10-Day Weather Forecast

Almanac

Astronomy

Jul. 25, 2016 Rise Set
Actual Time
Civil Twilight
Nautical Twilight
Astronomical Twilight
Moon
Length of Visible Light
Length of Day
Tomorrow will be .
, % of the Moon is Illuminated

Today's Extremes

State Highs State Lows

Community

WunderPhotos

Upload Photos

1,927,314 photos uploaded!

WunderBlog® & News

Nearby

Air Quality

  Air Quality AQ Index Pollutant
Not available.

Snow Depth

Station Depth Elevation

Earthquake Activity

City Distance Mag. Time & Date
Minimum magnitude displayed is 2.5.

Coastal Water Temperatures

Place Temperature

Stations

Nearby Weather Stations

Station Location Temp. Windchill Dew Point Humidity Wind Precip. Elev Updated Type
                   

Watches & Warnings

Beach Hazard Statement
Issued: 10:23 AM EDT Jul. 25, 2016 – National Weather Service

... Beach hazards statement in effect until 4 PM EDT this
afternoon...

The National Weather Service in northern Indiana has issued a
beach hazards statement for dangerous swimming conditions... which
is in effect until 4 PM EDT this afternoon.

* High wave action and dangerous swimming conditions expected...

* strong rip currents expected...

* strong structural currents expected...

* overview/potential impacts... northwest winds up to 15 mph will
result in waves up to 4 feet through early afternoon. Winds and
waves will diminish during the mid afternoon hours.

Precautionary/preparedness actions...

Life threatening waves and currents are expected at the beaches.
People visiting the beaches should stay out of the water.

Rip currents are powerful channels of water flowing quickly away
from the shore... which occur most often at low spots or breaks in
sandbars. Rip currents can sweep you into deeper water.

Structural currents form along piers where longshore currents and
wave action flow into the structure. Structural currents can
sweep you out into deeper water along the pier structure.